Time;durP1;ratioP1;P1;durP2;ratioP2;P2;SDS_P1;SDS_P2;PMS_P1;PMS_P2;Temp;Humidity;BMP_temperature;BMP_pressure;BME280_temperature;BME280_humidity;BME280_pressure;Samples;Min_cycle;Max_cycle;Signal;HPM_P1;HPM_P2
2023/08/06 00:00:16;;;;;;;1.23;1.00;;;25.70;49.10;;;;;;5076832;28;20059;-69
2023/08/06 00:02:42;;;;;;;1.40;1.10;;;25.70;49.20;;;;;;5079485;28;20048;-68
2023/08/06 00:05:08;;;;;;;1.92;1.10;;;25.70;49.20;;;;;;5080115;28;20033;-68
2023/08/06 00:07:33;;;;;;;1.20;1.10;;;25.60;49.20;;;;;;5080057;28;20028;-68
2023/08/06 00:09:59;;;;;;;1.05;0.90;;;25.60;49.20;;;;;;5078453;28;20031;-68
2023/08/06 00:12:24;;;;;;;1.33;1.10;;;25.60;49.20;;;;;;5078059;28;20040;-68
2023/08/06 00:14:51;;;;;;;1.20;1.00;;;25.60;49.20;;;;;;5076780;28;20429;-64
2023/08/06 00:17:17;;;;;;;1.30;1.00;;;25.60;49.30;;;;;;5077512;28;20078;-64
2023/08/06 00:19:42;;;;;;;1.40;1.20;;;25.60;49.30;;;;;;5079101;28;20067;-65
2023/08/06 00:22:08;;;;;;;1.13;1.00;;;25.60;49.30;;;;;;5079634;28;20067;-63
2023/08/06 00:24:34;;;;;;;1.42;1.10;;;25.60;49.30;;;;;;5080844;28;20086;-65
2023/08/06 00:27:00;;;;;;;1.52;1.10;;;25.60;49.30;;;;;;5079185;28;20502;-65
2023/08/06 00:29:26;;;;;;;1.13;0.95;;;25.60;49.30;;;;;;5077667;28;20031;-64
2023/08/06 00:31:51;;;;;;;1.30;1.00;;;25.50;49.80;;;;;;5079106;28;20075;-64
2023/08/06 00:34:17;;;;;;;1.40;1.13;;;25.50;49.30;;;;;;5078744;28;20082;-65
2023/08/06 00:36:43;;;;;;;1.40;1.05;;;25.50;49.30;;;;;;5079645;28;20035;-64
2023/08/06 00:39:08;;;;;;;1.08;0.98;;;25.50;49.30;;;;;;5079611;28;20048;-65
2023/08/06 00:41:34;;;;;;;1.27;1.00;;;25.50;49.40;;;;;;5078947;28;20365;-65
2023/08/06 00:44:00;;;;;;;1.75;1.15;;;25.50;49.40;;;;;;5078519;28;20032;-64
2023/08/06 00:46:26;;;;;;;1.13;0.90;;;25.50;49.30;;;;;;5079504;28;20100;-64
2023/08/06 00:48:52;;;;;;;1.20;1.08;;;25.50;49.40;;;;;;5075776;28;20027;-63
2023/08/06 00:51:19;;;;;;;1.02;0.85;;;25.50;49.40;;;;;;5076162;28;20543;-65
2023/08/06 00:53:45;;;;;;;1.25;1.00;;;25.40;49.40;;;;;;5059721;28;20036;-64
2023/08/06 00:56:11;;;;;;;1.30;1.00;;;25.50;49.50;;;;;;5078881;28;20506;-64
2023/08/06 00:58:38;;;;;;;1.20;0.98;;;25.50;49.50;;;;;;5079287;28;20032;-64
2023/08/06 01:01:03;;;;;;;1.02;0.90;;;25.40;49.40;;;;;;5078002;28;20106;-64
2023/08/06 01:03:29;;;;;;;1.65;1.10;;;25.40;49.40;;;;;;5074615;28;20086;-65
2023/08/06 01:05:55;;;;;;;1.20;1.00;;;25.40;49.50;;;;;;5079207;28;20024;-65
2023/08/06 01:08:24;;;;;;;1.10;1.00;;;25.40;49.50;;;;;;5078922;28;20020;-65
2023/08/06 01:11:22;;;;;;;1.10;1.00;;;25.40;49.50;;;;;;5076024;28;20043;-64
2023/08/06 01:13:51;;;;;;;1.52;1.10;;;25.40;49.50;;;;;;5076305;28;20035;-65
2023/08/06 01:16:17;;;;;;;;;;;25.40;49.50;;;;;;5077864;28;20047;-66
2023/08/06 01:18:46;;;;;;;1.23;1.00;;;25.40;49.50;;;;;;5076213;28;20454;-65
2023/08/06 01:21:13;;;;;;;1.38;1.02;;;25.40;49.50;;;;;;5058602;28;20020;-66
2023/08/06 01:23:39;;;;;;;1.10;0.95;;;25.40;49.50;;;;;;5078130;28;20107;-65
2023/08/06 01:26:22;;;;;;;0.82;0.80;;;25.40;49.60;;;;;;5079879;28;20120;-64
2023/08/06 01:29:09;;;;;;;1.30;1.00;;;25.30;49.50;;;;;;5077209;28;20035;-67
2023/08/06 01:31:37;;;;;;;0.90;0.80;;;25.30;49.50;;;;;;5077337;28;20033;-65
2023/08/06 01:34:07;;;;;;;1.00;0.90;;;25.30;49.60;;;;;;5076674;28;20373;-69
2023/08/06 01:36:33;;;;;;;1.10;1.00;;;25.30;49.60;;;;;;5077417;28;20024;-70
2023/08/06 01:38:59;;;;;;;1.00;0.90;;;25.30;49.60;;;;;;5076280;28;20031;-70
2023/08/06 01:41:25;;;;;;;1.00;0.90;;;25.30;49.60;;;;;;5077752;28;20025;-70
2023/08/06 01:43:50;;;;;;;0.90;0.80;;;25.30;49.60;;;;;;5081333;28;20384;-68
2023/08/06 01:46:17;;;;;;;1.10;0.90;;;25.30;49.60;;;;;;5080601;28;20020;-68
2023/08/06 01:48:43;;;;;;;1.15;1.00;;;25.30;49.70;;;;;;5064472;28;20035;-69
2023/08/06 01:51:08;;;;;;;1.20;0.90;;;25.30;49.70;;;;;;5080691;28;20468;-69
2023/08/06 01:53:34;;;;;;;0.95;0.80;;;25.30;49.70;;;;;;5081707;28;20020;-68
2023/08/06 01:56:00;;;;;;;1.20;1.08;;;25.30;49.70;;;;;;5068696;28;20093;-68
2023/08/06 01:58:25;;;;;;;1.00;0.80;;;25.20;50.20;;;;;;5081076;28;20114;-69
2023/08/06 02:00:52;;;;;;;1.00;0.90;;;25.20;49.70;;;;;;5080782;28;20412;-68
2023/08/06 02:03:18;;;;;;;1.00;0.90;;;25.20;49.70;;;;;;5081211;28;20062;-67
2023/08/06 02:05:43;;;;;;;1.20;1.00;;;25.20;49.70;;;;;;5080932;28;20032;-67
2023/08/06 02:08:09;;;;;;;1.00;0.90;;;25.20;49.70;;;;;;5079524;28;20035;-67
2023/08/06 02:10:35;;;;;;;0.80;0.80;;;25.20;49.70;;;;;;5079808;28;20023;-67
2023/08/06 02:13:00;;;;;;;1.00;0.90;;;25.20;49.70;;;;;;5081781;28;20033;-67
2023/08/06 02:15:26;;;;;;;0.82;0.80;;;25.20;49.70;;;;;;5080537;28;20369;-67
2023/08/06 02:17:51;;;;;;;1.50;0.90;;;25.20;49.70;;;;;;5078804;28;20027;-68
2023/08/06 02:20:17;;;;;;;1.00;0.80;;;25.20;49.70;;;;;;5080821;28;20670;-68
2023/08/06 02:22:43;;;;;;;1.05;0.80;;;25.20;49.70;;;;;;5079289;28;20039;-68
2023/08/06 02:25:08;;;;;;;1.55;0.90;;;25.20;49.70;;;;;;5078113;28;20506;-67
2023/08/06 02:27:34;;;;;;;0.90;0.70;;;25.20;49.80;;;;;;5077114;28;20023;-67
2023/08/06 02:29:59;;;;;;;1.10;0.90;;;25.20;49.80;;;;;;5079565;28;20032;-67
2023/08/06 02:32:25;;;;;;;1.15;0.90;;;25.20;49.80;;;;;;5080901;28;20423;-68
2023/08/06 02:34:51;;;;;;;1.05;0.90;;;25.10;49.70;;;;;;5078934;28;20376;-67
2023/08/06 02:37:17;;;;;;;1.00;0.90;;;25.20;49.80;;;;;;5080734;28;20546;-67
2023/08/06 02:39:43;;;;;;;1.10;0.90;;;25.10;49.70;;;;;;5062196;28;20981;-68
2023/08/06 02:42:09;;;;;;;1.10;0.90;;;25.10;49.70;;;;;;5079342;28;20024;-67
2023/08/06 02:44:35;;;;;;;0.90;0.80;;;25.10;49.70;;;;;;5081196;28;20016;-66
2023/08/06 02:47:01;;;;;;;0.90;0.90;;;25.10;49.70;;;;;;5081487;28;20426;-65
2023/08/06 02:49:26;;;;;;;1.45;0.82;;;25.10;49.80;;;;;;5079944;28;20031;-64
2023/08/06 02:51:52;;;;;;;0.80;0.80;;;25.10;49.80;;;;;;5079650;28;20027;-65
2023/08/06 02:54:19;;;;;;;1.13;0.90;;;25.10;49.80;;;;;;5078370;28;20039;-64
2023/08/06 02:56:46;;;;;;;1.27;0.90;;;25.10;49.80;;;;;;5078767;28;20472;-64
2023/08/06 02:59:12;;;;;;;0.88;0.88;;;25.10;49.90;;;;;;5078848;28;20088;-66
2023/08/06 03:01:38;;;;;;;1.10;0.80;;;25.10;49.80;;;;;;5079113;28;20070;-64
2023/08/06 03:04:04;;;;;;;1.30;0.90;;;25.10;49.80;;;;;;5076867;28;20530;-66
2023/08/06 03:06:30;;;;;;;1.25;0.90;;;25.10;49.80;;;;;;5080082;28;20131;-64
2023/08/06 03:08:55;;;;;;;0.80;0.80;;;25.10;49.80;;;;;;5065510;28;20399;-66
2023/08/06 03:11:21;;;;;;;0.85;0.75;;;25.10;49.80;;;;;;5079417;28;20032;-66
2023/08/06 03:13:47;;;;;;;0.80;0.80;;;25.10;49.90;;;;;;5082791;28;20081;-68
2023/08/06 03:16:13;;;;;;;0.80;0.80;;;25.10;49.80;;;;;;5080731;28;20084;-68
2023/08/06 03:18:39;;;;;;;0.88;0.70;;;25.10;49.90;;;;;;5080180;28;20028;-68
2023/08/06 03:21:05;;;;;;;0.95;0.77;;;25.10;49.90;;;;;;5079867;28;20428;-68
2023/08/06 03:23:30;;;;;;;1.77;0.80;;;25.10;49.90;;;;;;5080496;28;20036;-68
2023/08/06 03:25:56;;;;;;;1.00;0.90;;;25.00;49.80;;;;;;5079715;28;20104;-67
2023/08/06 03:28:22;;;;;;;1.25;0.93;;;25.00;49.80;;;;;;5081299;28;20027;-67
2023/08/06 03:30:48;;;;;;;1.10;0.85;;;25.00;49.90;;;;;;5078781;28;20424;-67
2023/08/06 03:33:13;;;;;;;0.88;0.80;;;25.00;49.90;;;;;;5078886;28;20020;-67
2023/08/06 03:35:39;;;;;;;0.90;0.80;;;25.10;50.00;;;;;;5079715;28;20170;-67
2023/08/06 03:38:05;;;;;;;1.02;0.80;;;25.00;49.90;;;;;;5079385;28;20448;-67
2023/08/06 03:40:31;;;;;;;1.08;0.90;;;25.00;49.90;;;;;;5079278;28;20032;-67
2023/08/06 03:42:56;;;;;;;0.80;0.80;;;25.00;49.90;;;;;;5079585;28;20063;-66
2023/08/06 03:45:22;;;;;;;0.80;0.80;;;25.00;49.90;;;;;;5078514;28;20098;-65
2023/08/06 03:47:48;;;;;;;0.70;0.70;;;25.00;49.90;;;;;;5079093;28;20016;-66
2023/08/06 03:50:13;;;;;;;0.75;0.75;;;25.00;49.90;;;;;;5077481;28;20024;-65
2023/08/06 03:52:39;;;;;;;1.30;0.82;;;24.90;49.90;;;;;;5078650;28;20505;-64
2023/08/06 03:55:05;;;;;;;1.00;0.90;;;25.00;49.90;;;;;;5079573;28;20027;-65
2023/08/06 03:57:31;;;;;;;0.80;0.80;;;24.90;49.90;;;;;;5062512;28;20029;-66
2023/08/06 03:59:56;;;;;;;0.88;0.80;;;25.00;49.90;;;;;;5077223;28;20027;-65
2023/08/06 04:02:22;;;;;;;1.00;0.90;;;25.00;49.90;;;;;;5079790;28;20035;-66
2023/08/06 04:04:49;;;;;;;0.82;0.80;;;25.00;49.90;;;;;;5076941;28;20494;-66
2023/08/06 04:07:14;;;;;;;0.98;0.80;;;25.00;49.90;;;;;;5078910;28;20391;-66
2023/08/06 04:09:53;;;;;;;1.40;0.90;;;25.00;50.00;;;;;;5079926;28;20035;-65
2023/08/06 04:12:19;;;;;;;1.08;0.98;;;24.90;49.90;;;;;;5077524;28;20034;-65
2023/08/06 04:14:44;;;;;;;1.10;0.90;;;24.90;49.90;;;;;;5079836;28;20461;-66
2023/08/06 04:17:10;;;;;;;0.75;0.75;;;24.90;49.90;;;;;;5078026;28;20028;-66
2023/08/06 04:19:36;;;;;;;1.00;0.90;;;25.00;50.00;;;;;;5078498;28;20079;-65
2023/08/06 04:22:01;;;;;;;0.80;0.80;;;24.90;49.90;;;;;;5062979;28;20028;-67
2023/08/06 04:24:27;;;;;;;0.90;0.80;;;24.90;49.90;;;;;;5080328;28;20024;-68
2023/08/06 04:26:52;;;;;;;0.70;0.70;;;24.90;49.90;;;;;;5079329;28;20028;-68
2023/08/06 04:29:18;;;;;;;0.80;0.80;;;24.90;49.90;;;;;;5077266;28;20020;-68
2023/08/06 04:31:43;;;;;;;1.00;0.90;;;24.90;49.90;;;;;;5077542;28;20066;-68
2023/08/06 04:34:09;;;;;;;0.70;0.70;;;24.90;50.00;;;;;;5076073;28;20024;-68
2023/08/06 04:36:35;;;;;;;1.00;0.80;;;24.90;50.00;;;;;;5076413;28;20495;-68
2023/08/06 04:39:00;;;;;;;0.90;0.77;;;24.90;50.00;;;;;;5077357;28;20036;-68
2023/08/06 04:41:26;;;;;;;1.02;0.90;;;24.90;50.00;;;;;;5078869;28;20395;-68
2023/08/06 04:43:51;;;;;;;0.95;0.82;;;24.90;50.00;;;;;;5078067;28;20117;-68
2023/08/06 04:46:17;;;;;;;1.15;0.90;;;24.90;50.00;;;;;;5078881;28;20494;-69
2023/08/06 04:48:43;;;;;;;1.05;0.85;;;24.90;50.00;;;;;;5074972;28;20028;-68
2023/08/06 04:51:08;;;;;;;0.80;0.80;;;24.90;50.00;;;;;;5075982;28;20140;-68
2023/08/06 04:53:34;;;;;;;0.85;0.75;;;24.90;50.00;;;;;;5077108;28;20021;-66
2023/08/06 04:55:59;;;;;;;0.80;0.80;;;24.80;50.00;;;;;;5079229;28;20028;-65
2023/08/06 04:58:25;;;;;;;0.80;0.80;;;24.80;50.00;;;;;;5077188;28;20029;-66
2023/08/06 05:00:51;;;;;;;0.98;0.80;;;24.80;50.00;;;;;;5077275;28;20023;-66
2023/08/06 05:03:16;;;;;;;0.98;0.70;;;24.90;50.10;;;;;;5075746;28;20024;-65
2023/08/06 05:05:42;;;;;;;0.82;0.75;;;24.80;50.00;;;;;;5076230;28;20058;-66
2023/08/06 05:08:14;;;;;;;1.13;0.90;;;24.80;50.30;;;;;;5079498;28;20492;-66
2023/08/06 05:10:42;;;;;;;0.82;0.77;;;24.80;50.00;;;;;;5077627;28;20039;-64
2023/08/06 05:13:08;;;;;;;1.07;0.90;;;24.80;50.00;;;;;;5077663;28;20028;-65
2023/08/06 05:15:34;;;;;;;1.00;0.90;;;24.80;50.00;;;;;;5079111;28;20383;-66
2023/08/06 05:17:59;;;;;;;1.10;0.80;;;24.80;50.00;;;;;;5077472;28;20028;-65
2023/08/06 05:20:25;;;;;;;0.90;0.80;;;24.80;50.00;;;;;;5076852;28;20073;-66
2023/08/06 05:22:51;;;;;;;0.90;0.70;;;24.80;50.00;;;;;;5078431;28;20106;-65
2023/08/06 05:25:16;;;;;;;1.35;0.80;;;24.80;50.00;;;;;;5076363;28;20016;-64
2023/08/06 05:27:42;;;;;;;1.00;0.73;;;24.80;50.00;;;;;;5078052;28;20379;-65
2023/08/06 05:30:08;;;;;;;1.00;0.80;;;24.80;50.00;;;;;;5078092;28;20028;-66
2023/08/06 05:32:34;;;;;;;0.73;0.70;;;24.80;50.00;;;;;;5077185;28;20115;-67
2023/08/06 05:35:00;;;;;;;0.70;0.70;;;24.80;50.00;;;;;;5075686;28;20095;-65
2023/08/06 05:37:25;;;;;;;0.95;0.80;;;24.80;50.50;;;;;;5077436;28;20029;-67
2023/08/06 05:39:51;;;;;;;0.80;0.80;;;24.80;50.00;;;;;;5063013;28;20031;-66
2023/08/06 05:42:16;;;;;;;0.80;0.80;;;24.80;50.10;;;;;;5078257;28;20742;-65
2023/08/06 05:44:42;;;;;;;0.70;0.70;;;24.80;50.00;;;;;;5075789;28;20031;-65
2023/08/06 05:47:07;;;;;;;0.80;0.80;;;24.80;50.10;;;;;;5077596;28;20033;-65
2023/08/06 05:49:33;;;;;;;0.75;0.70;;;24.80;50.10;;;;;;5078167;28;20139;-65
2023/08/06 05:51:59;;;;;;;0.80;0.80;;;24.80;50.10;;;;;;5062634;28;20028;-64
2023/08/06 05:54:25;;;;;;;1.05;0.82;;;24.70;50.00;;;;;;5078214;28;20103;-66
2023/08/06 05:56:50;;;;;;;0.60;0.60;;;24.70;50.00;;;;;;5077138;28;20032;-64
2023/08/06 05:59:16;;;;;;;0.63;0.63;;;24.70;50.00;;;;;;5075861;28;20036;-66
2023/08/06 06:01:41;;;;;;;1.00;0.90;;;24.70;50.10;;;;;;5076604;28;20593;-66
2023/08/06 06:04:07;;;;;;;0.75;0.75;;;24.70;50.00;;;;;;5075542;28;20028;-64
2023/08/06 06:06:33;;;;;;;0.80;0.80;;;24.70;50.00;;;;;;5078502;28;20155;-66
2023/08/06 06:08:58;;;;;;;0.90;0.80;;;24.80;50.10;;;;;;5075360;28;20479;-66
2023/08/06 06:11:24;;;;;;;0.98;0.80;;;24.70;50.00;;;;;;5076329;28;20082;-65
2023/08/06 06:13:52;;;;;;;1.00;0.80;;;24.80;50.10;;;;;;5077480;28;20506;-65
2023/08/06 06:16:18;;;;;;;0.77;0.77;;;24.70;50.10;;;;;;5076109;28;20108;-66
2023/08/06 06:18:43;;;;;;;0.60;0.60;;;24.70;50.00;;;;;;5077777;28;20139;-66
2023/08/06 06:21:10;;;;;;;0.88;0.77;;;24.70;50.00;;;;;;5073457;28;20040;-66
2023/08/06 06:23:35;;;;;;;1.00;0.82;;;24.70;50.10;;;;;;5076883;28;20112;-67
2023/08/06 06:26:01;;;;;;;1.17;0.90;;;24.70;50.10;;;;;;5076411;28;20100;-65
2023/08/06 06:28:26;;;;;;;0.80;0.70;;;24.70;50.10;;;;;;5076874;28;20028;-65
2023/08/06 06:30:52;;;;;;;1.17;0.85;;;24.70;50.10;;;;;;5077839;28;20055;-64
2023/08/06 06:33:18;;;;;;;1.00;0.90;;;24.70;50.60;;;;;;5081949;28;20032;-64
2023/08/06 06:35:43;;;;;;;0.77;0.70;;;24.70;50.10;;;;;;5079330;28;20036;-66
2023/08/06 06:38:09;;;;;;;1.02;0.90;;;24.70;50.10;;;;;;5079780;28;20032;-66
2023/08/06 06:40:34;;;;;;;0.70;0.70;;;24.60;50.00;;;;;;5064071;28;20020;-66
2023/08/06 06:43:00;;;;;;;0.98;0.80;;;24.70;50.10;;;;;;5079990;28;20031;-70
2023/08/06 06:45:26;;;;;;;0.70;0.70;;;24.70;50.00;;;;;;5081397;28;20444;-70
2023/08/06 06:47:51;;;;;;;0.90;0.80;;;24.60;50.00;;;;;;5080784;28;20021;-69
2023/08/06 06:50:17;;;;;;;0.90;0.80;;;24.70;50.00;;;;;;5079785;28;20107;-69
2023/08/06 06:52:42;;;;;;;0.60;0.60;;;24.60;50.00;;;;;;5078823;28;20081;-68
2023/08/06 06:55:08;;;;;;;0.80;0.70;;;24.70;50.10;;;;;;5079069;28;20425;-69
2023/08/06 06:57:34;;;;;;;0.75;0.73;;;24.70;50.00;;;;;;5079635;28;20074;-68
2023/08/06 06:59:59;;;;;;;0.98;0.80;;;24.60;50.00;;;;;;5079575;28;20685;-69
2023/08/06 07:02:25;;;;;;;0.73;0.70;;;24.60;50.00;;;;;;5080657;28;20058;-67
2023/08/06 07:04:51;;;;;;;1.02;0.80;;;24.60;50.00;;;;;;5077376;28;20032;-69
2023/08/06 07:07:16;;;;;;;0.70;0.70;;;24.60;50.00;;;;;;5078433;28;20029;-69
2023/08/06 07:09:42;;;;;;;0.80;0.80;;;24.60;50.00;;;;;;5080593;28;20020;-69
2023/08/06 07:12:08;;;;;;;0.70;0.68;;;24.60;50.00;;;;;;5078318;28;20028;-68
2023/08/06 07:14:33;;;;;;;1.08;0.80;;;24.60;50.00;;;;;;5078999;28;20032;-68
2023/08/06 07:16:59;;;;;;;0.85;0.70;;;24.60;50.00;;;;;;5078462;28;20059;-68
2023/08/06 07:19:25;;;;;;;0.93;0.80;;;24.60;50.00;;;;;;5078839;28;20491;-67
2023/08/06 07:21:50;;;;;;;1.13;0.70;;;24.60;50.00;;;;;;5076416;28;20020;-68
2023/08/06 07:24:16;;;;;;;0.85;0.77;;;24.60;50.00;;;;;;5066467;28;20028;-65
2023/08/06 07:26:42;;;;;;;1.38;0.90;;;24.60;50.00;;;;;;5082065;28;20024;-65
2023/08/06 07:29:07;;;;;;;0.88;0.80;;;24.60;50.00;;;;;;5080195;28;20028;-64
2023/08/06 07:31:33;;;;;;;0.88;0.80;;;24.60;50.00;;;;;;5081027;28;20621;-64
2023/08/06 07:33:59;;;;;;;1.00;0.80;;;24.60;49.90;;;;;;5079359;28;20102;-65
2023/08/06 07:36:25;;;;;;;0.85;0.70;;;24.60;49.90;;;;;;5077412;28;20031;-64
2023/08/06 07:38:55;;;;;;;0.73;0.60;;;24.50;49.80;;;;;;5078805;28;20028;-66
2023/08/06 07:41:22;;;;;;;1.02;0.75;;;24.60;49.80;;;;;;5079303;28;20016;-64
2023/08/06 07:43:48;;;;;;;0.70;0.70;;;24.60;49.80;;;;;;5080343;28;20119;-65
2023/08/06 07:46:13;;;;;;;0.88;0.70;;;24.50;49.70;;;;;;5079418;28;20017;-66
2023/08/06 07:48:39;;;;;;;1.15;0.90;;;24.50;49.70;;;;;;5080208;28;20032;-64
2023/08/06 07:51:04;;;;;;;0.70;0.70;;;24.50;49.70;;;;;;5078489;28;20016;-64
2023/08/06 07:53:30;;;;;;;1.05;0.80;;;24.50;49.70;;;;;;5077885;28;20036;-68
2023/08/06 07:55:56;;;;;;;0.90;0.80;;;24.50;49.70;;;;;;5077473;28;20032;-68
2023/08/06 07:58:24;;;;;;;0.90;0.70;;;24.50;49.70;;;;;;5078412;28;20472;-68
2023/08/06 08:00:50;;;;;;;0.90;0.70;;;24.50;49.70;;;;;;5078857;28;20029;-68
2023/08/06 08:03:16;;;;;;;1.45;0.80;;;24.50;49.60;;;;;;5078751;28;20387;-68
2023/08/06 08:05:43;;;;;;;1.10;0.80;;;24.50;50.20;;;;;;5077482;28;20111;-68
2023/08/06 08:08:09;;;;;;;0.73;0.65;;;24.50;49.70;;;;;;5081279;28;20029;-68
2023/08/06 08:10:36;;;;;;;1.05;0.70;;;24.50;49.60;;;;;;5080472;28;20036;-68
2023/08/06 08:13:02;;;;;;;0.70;0.60;;;24.50;49.60;;;;;;5080006;28;20051;-68
2023/08/06 08:15:29;;;;;;;1.08;0.80;;;24.50;49.60;;;;;;5079706;28;20139;-69
2023/08/06 08:17:55;;;;;;;0.73;0.70;;;24.50;49.60;;;;;;5080164;28;20514;-68
2023/08/06 08:20:21;;;;;;;1.10;0.80;;;24.50;49.60;;;;;;5077730;28;20016;-68
2023/08/06 08:22:46;;;;;;;0.95;0.70;;;24.50;49.70;;;;;;5078144;28;20117;-66
2023/08/06 08:25:12;;;;;;;0.85;0.63;;;24.50;49.70;;;;;;5077085;28;20096;-67
2023/08/06 08:27:38;;;;;;;0.57;0.57;;;24.50;49.70;;;;;;5077377;28;20036;-66
2023/08/06 08:30:04;;;;;;;0.95;0.70;;;24.50;49.80;;;;;;5079712;28;20059;-66
2023/08/06 08:32:30;;;;;;;0.60;0.60;;;24.50;49.80;;;;;;5080448;28;20558;-63
2023/08/06 08:34:56;;;;;;;0.98;0.80;;;24.50;49.80;;;;;;5078228;28;20035;-64
2023/08/06 08:37:23;;;;;;;0.90;0.73;;;24.50;49.90;;;;;;5076285;28;20056;-64
2023/08/06 08:39:48;;;;;;;0.75;0.65;;;24.50;49.90;;;;;;5079141;28;20024;-64
2023/08/06 08:42:15;;;;;;;0.77;0.70;;;24.50;49.90;;;;;;5078541;28;20027;-63
2023/08/06 08:44:43;;;;;;;0.68;0.68;;;24.40;49.90;;;;;;5076802;28;20556;-64
2023/08/06 08:47:10;;;;;;;0.82;0.70;;;24.50;50.00;;;;;;5076452;28;20020;-63
2023/08/06 08:49:37;;;;;;;0.60;0.60;;;24.50;50.00;;;;;;5078716;28;20035;-64
2023/08/06 08:52:06;;;;;;;0.65;0.60;;;24.40;50.00;;;;;;5077261;28;20488;-63
2023/08/06 08:54:32;;;;;;;;;;;24.50;50.00;;;;;;5069543;28;20047;-64
2023/08/06 08:56:58;;;;;;;0.80;0.60;;;24.50;50.00;;;;;;5079733;28;20331;-64
2023/08/06 08:59:24;;;;;;;0.63;0.60;;;24.50;50.00;;;;;;5077181;28;20036;-64
2023/08/06 09:01:51;;;;;;;1.00;0.73;;;24.50;50.00;;;;;;5063718;28;20399;-63
2023/08/06 09:04:19;;;;;;;1.00;0.70;;;24.40;50.00;;;;;;5076800;28;20141;-67
2023/08/06 09:06:50;;;;;;;0.93;0.70;;;24.50;50.10;;;;;;5076470;28;20029;-67
2023/08/06 09:09:37;;;;;;;0.70;0.60;;;24.40;50.10;;;;;;5058045;28;20545;-67
2023/08/06 09:12:11;;;;;;;0.60;0.60;;;24.50;50.20;;;;;;5061023;28;20024;-68
2023/08/06 09:14:37;;;;;;;0.98;0.60;;;24.40;50.10;;;;;;5079673;28;20044;-67
2023/08/06 09:17:04;;;;;;;0.60;0.60;;;24.40;50.10;;;;;;5078714;28;20135;-67
2023/08/06 09:19:30;;;;;;;0.70;0.70;;;24.40;50.20;;;;;;5078031;28;20034;-67
2023/08/06 09:21:56;;;;;;;0.95;0.70;;;24.40;50.20;;;;;;5075570;28;20395;-69
2023/08/06 09:24:22;;;;;;;0.63;0.60;;;24.40;50.20;;;;;;5077411;28;20036;-66
2023/08/06 09:26:48;;;;;;;1.05;0.60;;;24.40;50.30;;;;;;5061846;28;20527;-69
2023/08/06 09:29:14;;;;;;;1.00;0.63;;;24.40;50.30;;;;;;5059392;28;20054;-69
2023/08/06 09:31:52;;;;;;;0.70;0.70;;;24.40;50.30;;;;;;5076710;28;20020;-69
2023/08/06 09:34:20;;;;;;;0.75;0.70;;;24.40;50.30;;;;;;5077047;28;20028;-62
2023/08/06 09:36:56;;;;;;;0.60;0.60;;;24.40;50.30;;;;;;5077106;28;20024;-62
2023/08/06 09:39:27;;;;;;;0.70;0.70;;;24.40;50.30;;;;;;5078157;28;20027;-64
2023/08/06 09:41:59;;;;;;;0.60;0.50;;;24.40;50.30;;;;;;5078121;28;20031;-63
2023/08/06 09:44:26;;;;;;;0.57;0.57;;;24.40;50.30;;;;;;5076964;28;20048;-65
2023/08/06 09:46:54;;;;;;;0.73;0.60;;;24.40;50.30;;;;;;5077504;28;20035;-65
2023/08/06 09:49:21;;;;;;;0.47;0.47;;;24.40;50.30;;;;;;5076338;28;20032;-64
2023/08/06 09:51:51;;;;;;;0.60;0.60;;;24.40;50.30;;;;;;5075259;28;20436;-64
2023/08/06 09:54:20;;;;;;;0.50;0.50;;;24.40;50.30;;;;;;5075147;28;20430;-64
2023/08/06 09:56:47;;;;;;;0.43;0.40;;;24.40;50.30;;;;;;5076230;28;20032;-64
2023/08/06 09:59:13;;;;;;;0.50;0.50;;;24.40;50.40;;;;;;5076543;28;20034;-64
2023/08/06 10:01:39;;;;;;;0.60;0.60;;;24.40;50.40;;;;;;5077215;28;20467;-65
2023/08/06 10:04:11;;;;;;;0.70;0.60;;;24.40;50.40;;;;;;5082023;28;20030;-67
2023/08/06 10:06:37;;;;;;;0.52;0.50;;;24.40;50.40;;;;;;5079475;28;20012;-65
2023/08/06 10:09:06;;;;;;;0.73;0.60;;;24.40;50.40;;;;;;5081651;28;20059;-64
2023/08/06 10:11:31;;;;;;;0.57;0.50;;;24.40;50.40;;;;;;5081179;28;20476;-65
2023/08/06 10:14:28;;;;;;;0.60;0.50;;;24.40;50.40;;;;;;5081723;28;20062;-64
2023/08/06 10:16:56;;;;;;;0.55;0.50;;;24.40;50.50;;;;;;5080317;28;20060;-63
2023/08/06 10:19:23;;;;;;;0.50;0.50;;;24.40;50.50;;;;;;5080827;28;20063;-66
2023/08/06 10:22:08;;;;;;;0.60;0.55;;;24.40;50.50;;;;;;5078413;28;20028;-66
2023/08/06 10:24:55;;;;;;;0.40;0.40;;;24.40;50.50;;;;;;5081113;28;20040;-66
2023/08/06 10:27:39;;;;;;;0.50;0.50;;;24.40;50.50;;;;;;5079151;28;20392;-65
2023/08/06 10:30:30;;;;;;;0.50;0.50;;;24.40;50.50;;;;;;5080573;28;20024;-65
2023/08/06 10:32:57;;;;;;;0.47;0.40;;;24.40;50.50;;;;;;5080358;28;20095;-65
2023/08/06 10:35:45;;;;;;;0.50;0.50;;;24.40;50.50;;;;;;5079511;28;20533;-65
2023/08/06 10:38:19;;;;;;;0.70;0.50;;;24.40;50.50;;;;;;5078553;28;20074;-64
2023/08/06 10:41:02;;;;;;;0.50;0.50;;;24.40;50.50;;;;;;5079500;28;20047;-64
2023/08/06 10:43:29;;;;;;;1.35;0.60;;;24.40;50.60;;;;;;5078573;28;20025;-68
2023/08/06 10:45:57;;;;;;;0.50;0.50;;;24.40;50.60;;;;;;5061342;28;20024;-68
2023/08/06 10:48:29;;;;;;;0.50;0.50;;;24.40;50.60;;;;;;5064946;28;20094;-67
2023/08/06 10:50:56;;;;;;;0.60;0.50;;;24.40;50.60;;;;;;5079856;28;20032;-68
2023/08/06 10:53:21;;;;;;;0.45;0.45;;;24.40;50.60;;;;;;5079390;28;20039;-68
2023/08/06 10:55:47;;;;;;;0.55;0.45;;;24.40;50.60;;;;;;5080980;28;20028;-68
2023/08/06 10:58:15;;;;;;;0.60;0.60;;;24.40;50.60;;;;;;5082669;28;20028;-68
2023/08/06 11:00:41;;;;;;;0.43;0.40;;;24.40;50.60;;;;;;5079787;28;20028;-68
2023/08/06 11:03:07;;;;;;;0.50;0.50;;;24.40;50.60;;;;;;5065341;28;20056;-68
2023/08/06 11:05:33;;;;;;;0.60;0.60;;;24.40;50.60;;;;;;5080720;28;20491;-68
2023/08/06 11:07:58;;;;;;;0.50;0.50;;;24.40;50.60;;;;;;5079127;28;20417;-68
2023/08/06 11:10:24;;;;;;;1.00;0.50;;;24.40;50.50;;;;;;5082464;28;20052;-68
2023/08/06 11:12:49;;;;;;;0.50;0.50;;;24.40;50.50;;;;;;5078068;28;20480;-69
2023/08/06 11:15:15;;;;;;;0.50;0.50;;;24.40;50.40;;;;;;5063668;28;20024;-68
2023/08/06 11:17:41;;;;;;;1.00;0.40;;;24.40;50.40;;;;;;5080573;28;20028;-68
2023/08/06 11:20:08;;;;;;;0.40;0.40;;;24.40;50.30;;;;;;5079848;28;20466;-68
2023/08/06 11:22:35;;;;;;;0.43;0.43;;;24.40;50.30;;;;;;5078838;28;20444;-68
2023/08/06 11:25:01;;;;;;;0.50;0.50;;;24.40;50.30;;;;;;5081111;28;20501;-68
2023/08/06 11:27:28;;;;;;;0.50;0.50;;;24.40;50.20;;;;;;5079852;28;20024;-68
2023/08/06 11:29:54;;;;;;;0.40;0.40;;;24.40;50.20;;;;;;5080000;28;20115;-68
2023/08/06 11:32:20;;;;;;;0.50;0.50;;;24.40;50.30;;;;;;5078736;28;20135;-68
2023/08/06 11:34:46;;;;;;;0.40;0.40;;;24.40;50.30;;;;;;5078961;28;20091;-68
2023/08/06 11:37:11;;;;;;;0.40;0.40;;;24.40;50.20;;;;;;5079286;28;20032;-68
2023/08/06 11:39:38;;;;;;;0.43;0.43;;;24.40;50.30;;;;;;5078309;28;20406;-69
2023/08/06 11:42:07;;;;;;;0.63;0.43;;;24.40;50.30;;;;;;5078933;28;20097;-68
2023/08/06 11:44:35;;;;;;;0.47;0.47;;;24.40;50.30;;;;;;5081671;28;20028;-68
2023/08/06 11:47:04;;;;;;;0.50;0.50;;;24.40;50.30;;;;;;5080463;28;20368;-68
2023/08/06 11:49:39;;;;;;;0.40;0.40;;;24.40;50.30;;;;;;5079894;28;20479;-69
2023/08/06 11:52:25;;;;;;;0.50;0.40;;;24.40;50.20;;;;;;5069872;28;20036;-69
2023/08/06 11:55:10;;;;;;;0.63;0.50;;;24.40;50.20;;;;;;5080383;28;20044;-68
2023/08/06 11:57:36;;;;;;;0.38;0.38;;;24.40;50.20;;;;;;5076823;28;20441;-68
2023/08/06 12:00:06;;;;;;;0.50;0.50;;;24.40;50.30;;;;;;5080717;28;20036;-69
2023/08/06 12:02:37;;;;;;;0.40;0.40;;;24.40;50.20;;;;;;5078170;28;20068;-68
2023/08/06 12:05:11;;;;;;;0.40;0.40;;;24.40;50.20;;;;;;5078497;28;20161;-68
2023/08/06 12:07:39;;;;;;;0.82;0.40;;;24.40;50.30;;;;;;5075823;28;20027;-68
2023/08/06 12:10:05;;;;;;;0.60;0.40;;;24.40;50.30;;;;;;5078353;28;20052;-68
2023/08/06 12:12:31;;;;;;;0.40;0.40;;;24.40;50.40;;;;;;5079012;28;20033;-68
2023/08/06 12:14:57;;;;;;;0.70;0.50;;;24.40;50.40;;;;;;5079440;28;20802;-68
2023/08/06 12:17:24;;;;;;;0.40;0.40;;;24.40;50.40;;;;;;5079249;28;20036;-68
2023/08/06 12:19:50;;;;;;;0.35;0.35;;;24.40;50.90;;;;;;5077786;28;20506;-68
2023/08/06 12:22:16;;;;;;;0.40;0.40;;;24.40;50.40;;;;;;5077290;28;20103;-68
2023/08/06 12:24:43;;;;;;;0.77;0.40;;;24.40;50.40;;;;;;5079265;28;20467;-68
2023/08/06 12:27:09;;;;;;;0.40;0.40;;;24.30;50.30;;;;;;5077840;28;20024;-67
2023/08/06 12:29:36;;;;;;;0.57;0.40;;;24.30;50.40;;;;;;5079857;28;20099;-68
2023/08/06 12:32:03;;;;;;;0.40;0.40;;;24.30;50.40;;;;;;5078096;28;20078;-69
2023/08/06 12:34:28;;;;;;;1.05;0.40;;;24.40;50.40;;;;;;5077497;28;20835;-67
2023/08/06 12:36:54;;;;;;;0.50;0.50;;;24.30;50.40;;;;;;5077211;28;20020;-67
2023/08/06 12:39:19;;;;;;;0.60;0.47;;;24.30;50.40;;;;;;5076823;28;20031;-66
2023/08/06 12:41:45;;;;;;;0.50;0.40;;;24.30;50.40;;;;;;5079248;28;20110;-67
2023/08/06 12:44:12;;;;;;;0.40;0.40;;;24.30;50.40;;;;;;5077631;28;20025;-67
2023/08/06 12:46:37;;;;;;;0.70;0.50;;;24.30;50.40;;;;;;5078051;28;20025;-67